Time;durP1;ratioP1;P1;durP2;ratioP2;P2;SDS_P1;SDS_P2;PMS_P1;PMS_P2;Temp;Humidity;BMP_temperature;BMP_pressure;BME280_temperature;BME280_humidity;BME280_pressure;Samples;Min_cycle;Max_cycle;Signal;HPM_P1;HPM_P2
2023/06/20 00:01:38;;;;;;;;;;;;;;;;;;;;;
2023/06/20 00:05:42;;;;;;;;;;;;;;;;;;;;;
2023/06/20 00:08:37;;;;;;;;;1.00;1.00;;;;;21.76;100.00;100892.56;5005980;28;45581;-83
2023/06/20 00:19:06;;;;;;;;;0.67;0.67;;;;;21.66;100.00;100880.13;4956127;28;45768;-83
2023/06/20 00:22:08;;;;;;;;;;;;;;;;;;;;;
2023/06/20 00:36:05;;;;;;;;;5.00;2.00;;;;;21.47;100.00;100866.63;4950443;28;45517;-83
2023/06/20 00:49:30;;;;;;;;;0.67;0.67;;;;;20.74;100.00;100784.53;4935371;28;45632;-84
2023/06/20 00:55:49;;;;;;;;;;;;;;;;;;;;;
2023/06/20 01:05:14;;;;;;;;;;;;;;;;;;;;;
2023/06/20 01:08:28;;;;;;;;;2.33;1.33;;;;;20.67;100.00;100769.94;5040046;28;73181;-83
2023/06/20 01:11:34;;;;;;;;;1.00;1.00;;;;;21.14;100.00;100851.69;5055698;28;45536;-82
2023/06/20 01:15:16;;;;;;;;;;;;;;;;;;;;;
2023/06/20 01:21:56;;;;;;;;;1.00;1.00;;;;;20.56;100.00;100773.56;4999245;28;45743;-82
2023/06/20 01:25:26;;;;;;;;;;;;;;;;;;;;;
2023/06/20 01:36:14;;;;;;;;;;;;;;;;;;;;;
2023/06/20 01:42:37;;;;;;;;;2.00;2.00;;;;;20.48;100.00;100756.44;4903390;28;45347;-83
2023/06/20 01:45:43;;;;;;;;;;;;;;;;;;;;;
2023/06/20 01:59:28;;;;;;;;;;;;;;;;;;;;;
2023/06/20 02:02:54;;;;;;;;;;;;;;;;;;;;;
2023/06/20 02:13:27;;;;;;;;;;;;;;;;;;;;;
2023/06/20 02:16:41;;;;;;;;;;;;;;;;;;;;;
2023/06/20 02:19:48;;;;;;;;;2.67;2.67;;;;;20.85;100.00;100846.22;4883602;29;75734;-83
2023/06/20 02:23:21;;;;;;;;;;;;;;;;;;;;;
2023/06/20 02:26:31;;;;;;;;;3.33;2.33;;;;;20.85;100.00;100832.78;4950717;28;68676;-84
2023/06/20 02:29:57;;;;;;;;;3.00;3.00;;;;;20.38;100.00;100742.13;4998107;28;45492;-83
2023/06/20 02:33:20;;;;;;;;;;;;;;;;;;;;;
2023/06/20 02:36:58;;;;;;;;;2.00;2.00;;;;;20.25;100.00;100721.66;5065822;27;72619;-84
2023/06/20 02:50:22;;;;;;;;;4.00;4.00;;;;;20.77;100.00;100817.38;4947941;28;45337;-84
2023/06/20 02:56:44;;;;;;;;;;;;;;;;;;;;;
2023/06/20 03:00:12;;;;;;;;;4.33;3.33;;;;;20.35;100.00;100743.25;4937026;28;74707;-83
2023/06/20 03:10:06;;;;;;;;;4.33;4.33;;;;;20.75;100.00;100811.25;4914032;28;45531;-84
2023/06/20 03:13:01;;;;;;;;;6.33;3.33;;;;;20.75;100.00;100813.09;4874781;29;46123;-84
2023/06/20 03:27:44;;;;;;;;;;;;;;;;;;;;;
2023/06/20 03:30:52;;;;;;;;;;;;;;;;;;;;;
2023/06/20 03:34:26;;;;;;;;;;;;;;;;;;;;;
2023/06/20 03:37:38;;;;;;;;;3.33;3.33;;;;;20.71;100.00;100798.25;4955281;28;73275;-83
2023/06/20 03:44:15;;;;;;;;;;;;;;;;;;;;;
2023/06/20 03:54:34;;;;;;;;;;;;;;;;;;;;;
2023/06/20 03:57:45;;;;;;;;;5.67;5.67;;;;;20.50;100.00;100757.16;4971060;28;45727;-84
2023/06/20 04:04:18;;;;;;;;;7.00;7.00;;;;;20.60;100.00;100758.03;4965262;28;45698;-83
2023/06/20 04:07:42;;;;;;;;;;;;;;;;;;;;;
2023/06/20 04:14:34;;;;;;;;;;;;;;;;;;;;;
2023/06/20 04:30:50;;;;;;;;;5.33;4.00;;;;;20.97;100.00;100802.13;4888101;29;45566;-83
2023/06/20 04:34:24;;;;;;;;;4.00;4.00;;;;;20.48;100.00;100697.34;4879344;28;45631;-84
2023/06/20 04:37:48;;;;;;;;;4.33;4.33;;;;;21.05;100.00;100791.50;4936550;28;46645;-85
2023/06/20 04:44:17;;;;;;;;;9.33;4.67;;;;;21.13;100.00;100789.00;5067418;28;45489;-84
2023/06/20 04:51:26;;;;;;;;;4.00;2.67;;;;;20.76;100.00;100699.22;5051700;27;45514;-84
2023/06/20 04:54:29;;;;;;;;;5.00;5.00;;;;;20.73;100.00;100696.81;5042021;27;45596;-84
2023/06/20 05:00:57;;;;;;;;;4.67;4.00;;;;;21.35;100.00;100774.44;5083363;27;45991;-84
2023/06/20 05:03:47;;;;;;;;;;;;;;;;;;;;;
2023/06/20 05:06:42;;;;;;;;;3.33;3.33;;;;;20.96;100.00;100694.69;5077584;27;68592;-82
2023/06/20 05:09:29;;;;;;;;;4.33;4.00;;;;;21.24;100.00;100744.97;5056322;27;45456;-81
2023/06/20 05:12:04;;;;;;;;;6.00;5.00;;;;;20.91;100.00;100692.41;5041520;28;47381;-81
2023/06/20 05:15:08;;;;;;;;;4.67;4.33;;;;;21.51;100.00;100776.53;5068668;28;45280;-81
2023/06/20 05:20:59;;;;;;;;;5.00;4.33;;;;;21.60;100.00;100768.44;5081004;27;45769;-81
2023/06/20 05:23:37;;;;;;;;;6.33;5.33;;;;;21.02;100.00;100681.53;5094257;27;45301;-81
2023/06/20 05:26:23;;;;;;;;;5.00;5.00;;;;;21.36;100.00;100710.72;5083525;28;45620;-80
2023/06/20 05:35:56;;;;;;;;;8.00;6.33;;;;;21.94;100.00;100760.78;5052360;27;46523;-84
2023/06/20 05:39:01;;;;;;;;;3.00;3.00;;;;;21.51;100.00;100685.88;5075409;27;45545;-82
2023/06/20 05:42:17;;;;;;;;;5.67;5.00;;;;;21.63;100.00;100689.25;5088402;27;45446;-82
2023/06/20 05:48:48;;;;;;;;;8.33;5.00;;;;;22.21;100.00;100693.47;5023490;28;46363;-82
2023/06/20 05:52:02;;;;;;;;;6.33;5.33;;;;;22.47;100.00;100715.19;4982426;28;45471;-84
2023/06/20 06:02:57;;;;;;;;;5.00;5.00;;;;;22.77;100.00;100662.78;4958583;28;45466;-81
2023/06/20 06:16:05;;;;;;;;;6.67;6.67;;;;;23.27;99.31;100690.03;5022918;28;47954;-82
2023/06/20 06:19:41;;;;;;;;;;;;;;;;;;;;;
2023/06/20 06:22:26;;;;;;;;;6.33;6.00;;;;;23.25;99.34;100733.38;5055621;28;68681;-83
2023/06/20 06:25:22;;;;;;;;;7.33;7.33;;;;;22.93;100.00;100691.75;5051336;28;45381;-82
2023/06/20 06:31:59;;;;;;;;;7.67;4.67;;;;;22.96;100.00;100691.44;5012035;28;45407;-83
2023/06/20 06:38:20;;;;;;;;;7.33;6.33;;;;;23.44;100.00;100794.47;5055637;28;45305;-83
2023/06/20 06:41:27;;;;;;;;;8.00;8.00;;;;;23.44;100.00;100793.63;5043144;28;45575;-84
2023/06/20 06:44:19;;;;;;;;;8.67;8.67;;;;;22.96;99.27;100713.88;5040118;28;45387;-84
2023/06/20 06:47:10;;;;;;;;;6.00;6.00;;;;;23.28;100.00;100765.44;5050581;28;45584;-84
2023/06/20 06:50:41;;;;;;;;;;;;;;;;;;;;;
2023/06/20 07:03:10;;;;;;;;;7.00;7.00;;;;;23.95;96.97;100755.03;5029695;28;45373;-84
2023/06/20 07:06:30;;;;;;;;;11.33;8.00;;;;;23.71;97.29;100712.50;5063738;28;45949;-83
2023/06/20 07:09:10;;;;;;;;;9.00;6.00;;;;;24.06;95.58;100760.16;5041810;28;45436;-81
2023/06/20 07:16:09;;;;;;;;;;;;;;;;;;;;;
2023/06/20 07:32:34;;;;;;;;;12.33;9.00;;;;;23.68;96.14;100731.72;4914948;28;45548;-82
2023/06/20 07:36:00;;;;;;;;;;;;;;;;;;;;;
2023/06/20 07:42:40;;;;;;;;;8.67;8.00;;;;;23.64;94.64;100730.34;4947301;28;45452;-82
2023/06/20 07:45:22;;;;;;;;;11.00;10.67;;;;;23.64;95.54;100739.28;5029536;27;45667;-82
2023/06/20 07:48:43;;;;;;;;;6.00;6.00;;;;;24.20;96.08;100828.03;5049243;27;45470;-82
2023/06/20 07:51:33;;;;;;;;;12.00;10.33;;;;;23.63;94.14;100742.13;5065886;27;45512;-82
2023/06/20 08:01:05;;;;;;;;;14.00;12.67;;;;;23.83;92.72;100754.44;4997719;28;45685;-82
2023/06/20 08:04:18;;;;;;;;;19.67;12.67;;;;;24.43;91.28;100836.44;5061137;28;45531;-82
2023/06/20 08:07:05;;;;;;;;;9.67;9.67;;;;;23.88;90.51;100743.16;4995595;28;46285;-82
2023/06/20 08:10:12;;;;;;;;;;;;;;;;;;;;;
2023/06/20 08:20:06;;;;;;;;;;;;;;;;;;;;;
2023/06/20 08:23:14;;;;;;;;;13.00;13.00;;;;;24.28;89.59;100741.56;4940196;28;73946;-82
2023/06/20 08:26:48;;;;;;;;;14.33;11.00;;;;;24.47;87.41;100742.31;4905403;28;45439;-82
2023/06/20 08:30:00;;;;;;;;;10.33;10.33;;;;;24.63;86.93;100745.09;4905175;28;45605;-82
2023/06/20 08:40:17;;;;;;;;;10.67;10.67;;;;;25.73;87.60;100808.75;5021334;27;45630;-82
2023/06/20 08:46:39;;;;;;;;;12.67;10.33;;;;;25.92;80.37;100785.88;5027400;27;45952;-82
2023/06/20 08:53:02;;;;;;;;;11.00;11.00;;;;;25.68;81.12;100748.84;5031512;27;45546;-82
2023/06/20 08:56:01;;;;;;;;;14.33;13.00;;;;;25.89;82.58;100800.63;5076986;27;45407;-82
2023/06/20 09:02:23;;;;;;;;;12.00;11.00;;;;;25.31;81.72;100727.66;5077167;27;46353;-82
2023/06/20 09:05:31;;;;;;;;;11.33;11.33;;;;;25.26;85.50;100718.34;5079510;27;45433;-82
2023/06/20 09:08:20;;;;;;;;;11.33;11.33;;;;;25.26;83.76;100726.47;5068826;28;45624;-82
2023/06/20 09:11:14;;;;;;;;;12.00;12.00;;;;;25.81;86.38;100778.97;5058824;27;45487;-82
2023/06/20 09:14:57;;;;;;;;;;;;;;;;;;;;;
2023/06/20 09:18:34;;;;;;;;;;;;;;;;;;;;;
2023/06/20 09:21:19;;;;;;;;;;;;;;;;;;;;;
2023/06/20 09:24:30;;;;;;;;;15.33;13.33;;;;;25.57;80.99;100689.56;5088145;27;71734;-82
2023/06/20 09:27:48;;;;;;;;;12.00;12.00;;;;;25.67;80.66;100697.50;5064293;27;47150;-81
2023/06/20 09:41:07;;;;;;;;;13.67;13.33;;;;;26.58;81.78;100708.75;5040896;28;46893;-82
2023/06/20 09:54:34;;;;;;;;;10.00;10.00;;;;;26.59;76.51;100694.16;4984831;28;46531;-82
2023/06/20 09:57:48;;;;;;;;;14.00;13.00;;;;;26.62;77.85;100704.66;4955460;28;45546;-82
2023/06/20 10:00:50;;;;;;;;;12.00;11.00;;;;;27.14;80.22;100792.59;5044141;28;45460;-81
2023/06/20 10:14:37;;;;;;;;;;;;;;;;;;;;;
2023/06/20 10:17:08;;;;;;;;;7.33;7.33;;;;;28.17;69.61;100784.81;5045903;28;45542;-84
2023/06/20 10:20:02;;;;;;;;;9.00;9.00;;;;;28.06;67.13;100739.03;5050492;28;46910;-82
2023/06/20 10:23:38;;;;;;;;;8.67;8.67;;;;;28.79;66.18;100802.47;5040542;28;45475;-85
2023/06/20 10:29:57;;;;;;;;;;;;;;;;;;;;;
2023/06/20 10:33:27;;;;;;;;;10.00;10.00;;;;;28.69;67.45;100743.91;5057196;28;75421;-82
2023/06/20 10:39:55;;;;;;;;;8.00;8.00;;;;;29.04;67.55;100838.38;4969609;28;45543;-82
2023/06/20 10:47:30;;;;;;;;;;;;;;;;;;;;;
2023/06/20 10:50:10;;;;;;;;;;;;;;;;;;;;;
2023/06/20 10:57:09;;;;;;;;;9.33;8.33;;;;;28.38;63.99;100793.91;5042079;28;45738;-82
2023/06/20 11:00:50;;;;;;;;;6.33;6.33;;;;;28.10;65.29;100773.84;4984580;28;45551;-82
2023/06/20 11:06:58;;;;;;;;;7.33;5.33;;;;;28.43;64.92;100845.91;4986961;28;45475;-82
2023/06/20 11:10:00;;;;;;;;;;;;;;;;;;;;;
2023/06/20 11:23:36;;;;;;;;;3.00;3.00;;;;;28.85;62.46;100760.84;4957155;28;45542;-82
2023/06/20 11:26:51;;;;;;;;;6.00;5.00;;;;;29.11;58.36;100773.06;4936731;28;46886;-82
2023/06/20 11:29:59;;;;;;;;;5.00;5.00;;;;;29.57;59.79;100845.28;4940533;28;45272;-82
2023/06/20 11:33:44;;;;;;;;;;;;;;;;;;;;;
2023/06/20 11:36:28;;;;;;;;;;;;;;;;;;;;;
2023/06/20 11:43:11;;;;;;;;;;;;;;;;;;;;;
2023/06/20 11:46:14;;;;;;;;;7.00;7.00;;;;;29.32;59.40;100792.16;5000722;28;68670;-82
2023/06/20 11:49:48;;;;;;;;;5.00;5.00;;;;;29.39;59.16;100747.59;4998879;28;45525;-82
2023/06/20 11:56:16;;;;;;;;;6.00;6.00;;;;;30.37;58.33;100793.91;4980100;28;45716;-82
2023/06/20 11:59:15;;;;;;;;;6.00;6.00;;;;;30.33;56.36;100814.47;4969455;28;45543;-82
2023/06/20 12:02:25;;;;;;;;;6.33;6.00;;;;;29.72;59.67;100722.50;4992812;28;45563;-83
2023/06/20 12:05:13;;;;;;;;;7.33;6.33;;;;;29.74;59.55;100731.34;4992543;28;45597;-82
2023/06/20 12:08:15;;;;;;;;;;;;;;;;;;;;;
2023/06/20 12:18:28;;;;;;;;;7.67;7.00;;;;;30.08;62.40;100783.22;5021685;28;45923;-82
2023/06/20 12:28:35;;;;;;;;;;;;;;;;;;;;;
2023/06/20 12:34:35;;;;;;;;;;;;;;;;;;;;;
2023/06/20 12:40:39;;;;;;;;;8.33;8.33;;;;;30.84;56.70;100745.84;5048171;28;45631;-82
2023/06/20 12:46:44;;;;;;;;;6.00;6.00;;;;;30.68;55.66;100749.78;5064905;28;45485;-82
2023/06/20 12:50:05;;;;;;;;;6.33;6.00;;;;;30.33;54.59;100743.50;5053140;27;45336;-84
2023/06/20 12:52:56;;;;;;;;;;;;;;;;;;;;;
2023/06/20 12:55:40;;;;;;;;;9.33;8.00;;;;;29.84;54.36;100761.88;5078939;27;73626;-81
2023/06/20 12:59:08;;;;;;;;;8.00;8.00;;;;;29.62;55.74;100777.38;5081577;27;45399;-83
2023/06/20 13:02:27;;;;;;;;;;;;;;;;;;;;;
2023/06/20 13:05:18;;;;;;;;;10.00;9.00;;;;;29.19;55.06;100773.78;5082174;27;72719;-83
2023/06/20 13:08:11;;;;;;;;;11.67;9.67;;;;;29.13;56.68;100814.56;5061549;28;45602;-83
2023/06/20 13:11:09;;;;;;;;;10.00;7.00;;;;;29.14;59.75;100836.19;5048615;28;45500;-83
2023/06/20 13:13:47;;;;;;;;;8.00;8.00;;;;;28.91;59.52;100816.41;5073664;28;45482;-82
2023/06/20 13:16:53;;;;;;;;;8.33;7.67;;;;;28.78;58.32;100797.19;5079325;27;45353;-82
2023/06/20 13:19:37;;;;;;;;;;;;;;;;;;;;;
2023/06/20 13:26:00;;;;;;;;;9.67;9.00;;;;;29.67;57.71;100828.59;5094526;27;45395;-82
2023/06/20 13:29:08;;;;;;;;;;;;;;;;;;;;;
2023/06/20 13:32:02;;;;;;;;;9.00;7.33;;;;;29.60;55.24;100775.91;5094121;27;74374;-82
2023/06/20 13:35:42;;;;;;;;;;;;;;;;;;;;;
2023/06/20 13:38:46;;;;;;;;;;;;;;;;;;;;;
2023/06/20 13:41:24;;;;;;;;;7.67;7.00;;;;;30.64;55.13;100810.47;4980002;28;72811;-81
2023/06/20 13:45:01;;;;;;;;;;;;;;;;;;;;;
2023/06/20 13:47:44;;;;;;;;;7.67;7.67;;;;;31.61;52.67;100779.06;5078925;28;74206;-82
2023/06/20 13:50:38;;;;;;;;;9.67;9.00;;;;;31.72;51.92;100709.22;5045925;28;45382;-82
2023/06/20 13:53:34;;;;;;;;;8.33;6.00;;;;;32.25;51.00;100723.66;5046587;28;45361;-82
2023/06/20 13:57:04;;;;;;;;;7.33;6.33;;;;;33.23;49.33;100805.47;5042941;28;45438;-83
2023/06/20 14:00:10;;;;;;;;;7.00;7.00;;;;;33.03;47.21;100752.63;5032237;28;45436;-85
2023/06/20 14:02:56;;;;;;;;;7.33;7.33;;;;;33.12;48.15;100759.56;5038389;28;45424;-83
2023/06/20 14:05:31;;;;;;;;;9.67;8.00;;;;;33.75;46.93;100776.03;5045218;28;45583;-79
2023/06/20 14:09:05;;;;;;;;;;;;;;;;;;;;;
2023/06/20 14:11:55;;;;;;;;;4.67;4.67;;;;;33.53;45.88;100765.41;4989397;28;73446;-83
2023/06/20 14:21:26;;;;;;;;;;;;;;;;;;;;;
2023/06/20 14:24:24;;;;;;;;;9.67;8.67;;;;;31.43;47.32;100763.25;5055607;28;72629;-82
2023/06/20 14:27:15;;;;;;;;;7.33;6.33;;;;;31.05;47.16;100733.97;5049645;28;45314;-83
2023/06/20 14:33:13;;;;;;;;;7.00;7.00;;;;;31.54;49.08;100804.75;5058450;28;45596;-83
2023/06/20 14:36:06;;;;;;;;;5.00;5.00;;;;;31.42;47.15;100755.25;5033879;28;45365;-82
2023/06/20 14:38:56;;;;;;;;;5.67;5.67;;;;;31.85;46.40;100810.41;5041146;28;45424;-82
2023/06/20 14:41:46;;;;;;;;;7.00;6.00;;;;;31.54;45.94;100780.97;5037859;28;45595;-83
2023/06/20 14:44:52;;;;;;;;;5.00;5.00;;;;;31.65;47.86;100828.72;5041041;28;46392;-82
2023/06/20 14:47:25;;;;;;;;;5.00;4.67;;;;;31.16;47.27;100802.50;5028583;28;45533;-80
2023/06/20 14:53:48;;;;;;;;;3.67;3.67;;;;;30.64;49.28;100807.75;5069833;27;45485;-81
2023/06/20 14:59:56;;;;;;;;;6.00;4.33;;;;;29.69;49.59;100759.19;5068073;27;45470;-84
2023/06/20 15:03:14;;;;;;;;;4.67;4.67;;;;;29.53;50.26;100770.38;5071333;28;45543;-83
2023/06/20 15:09:39;;;;;;;;;;;;;;;;;;;;;
2023/06/20 15:12:36;;;;;;;;;5.33;5.33;;;;;29.41;50.39;100812.84;4982685;28;73632;-84
2023/06/20 15:15:34;;;;;;;;;5.67;4.67;;;;;28.89;51.15;100753.16;5056338;27;45480;-83
2023/06/20 15:18:37;;;;;;;;;3.00;3.00;;;;;29.23;51.50;100840.47;5055224;27;45620;-84
2023/06/20 15:25:04;;;;;;;;;;;;;;;;;;;;;
2023/06/20 15:28:42;;;;;;;;;;;;;;;;;;;;;
2023/06/20 15:31:50;;;;;;;;;4.00;4.00;;;;;27.92;52.40;100767.84;5060693;27;71516;-82
2023/06/20 15:37:39;;;;;;;;;6.67;6.67;;;;;28.15;53.32;100833.09;5082750;27;45503;-83
2023/06/20 15:40:33;;;;;;;;;;;;;;;;;;;;;
2023/06/20 15:53:58;;;;;;;;;;;;;;;;;;;;;
2023/06/20 15:56:55;;;;;;;;;5.00;4.00;;;;;28.08;54.84;100840.28;4995031;28;72682;-86
2023/06/20 16:00:05;;;;;;;;;5.00;3.33;;;;;27.48;55.21;100766.91;4992709;28;45955;-83
2023/06/20 16:03:21;;;;;;;;;3.00;3.00;;;;;27.46;54.10;100779.81;4991699;28;45591;-84
2023/06/20 16:06:08;;;;;;;;;4.00;4.00;;;;;27.70;55.52;100817.69;4973262;28;45498;-84
2023/06/20 16:08:52;;;;;;;;;4.33;4.33;;;;;27.38;55.48;100776.13;4991850;28;45362;-82
2023/06/20 16:12:03;;;;;;;;;4.00;4.00;;;;;27.62;55.81;100834.03;4984781;28;45820;-81
2023/06/20 16:15:03;;;;;;;;;5.33;5.33;;;;;27.17;57.02;100784.06;5021362;28;45538;-81
2023/06/20 16:18:00;;;;;;;;;;;;;;;;;;;;;
2023/06/20 16:20:48;;;;;;;;;4.33;3.00;;;;;27.24;59.01;100786.91;5076312;28;72668;-82
2023/06/20 16:30:02;;;;;;;;;;;;;;;;;;;;;
2023/06/20 16:33:15;;;;;;;;;;;;;;;;;;;;;
2023/06/20 16:36:19;;;;;;;;;;;;;;;;;;;;;
2023/06/20 16:39:36;;;;;;;;;;;;;;;;;;;;;
2023/06/20 16:54:20;;;;;;;;;;;;;;;;;;;;;
2023/06/20 16:57:19;;;;;;;;;5.00;4.00;;;;;29.41;55.80;100879.09;4929775;28;68127;-84
2023/06/20 17:00:03;;;;;;;;;3.33;3.33;;;;;28.81;56.46;100807.69;4954709;28;45561;-86
2023/06/20 17:02:51;;;;;;;;;5.33;5.00;;;;;28.68;55.50;100805.66;5047116;28;46300;-87
2023/06/20 17:05:38;;;;;;;;;6.00;4.00;;;;;28.82;55.93;100847.53;5050640;28;45262;-83
2023/06/20 17:12:14;;;;;;;;;;;;;;;;;;;;;
2023/06/20 17:15:02;;;;;;;;;8.50;7.00;;;;;27.87;58.33;100860.88;4974162;28;75069;-81
2023/06/20 17:17:55;;;;;;;;;4.33;4.33;;;;;27.59;58.24;100837.13;5022521;28;45560;-82
2023/06/20 17:20:59;;;;;;;;;;;;;;;;;;;;;
2023/06/20 17:31:06;;;;;;;;;;;;;;;;;;;;;
2023/06/20 17:34:16;;;;;;;;;6.67;6.67;;;;;29.91;50.08;100833.66;4972142;28;67227;-84
2023/06/20 17:37:15;;;;;;;;;7.00;6.00;;;;;28.96;51.93;100839.31;5058629;28;45482;-84
2023/06/20 17:40:45;;;;;;;;;;;;;;;;;;;;;
2023/06/20 17:43:21;;;;;;;;;5.00;5.00;;;;;28.13;55.06;100871.38;5051600;28;73945;-82
2023/06/20 17:46:45;;;;;;;;;4.67;4.67;;;;;28.37;53.88;100933.69;5042926;28;45519;-85
2023/06/20 17:57:12;;;;;;;;;;;;;;;;;;;;;
2023/06/20 18:00:19;;;;;;;;;6.00;6.00;;;;;29.43;52.16;100846.19;5050292;28;68292;-82
2023/06/20 18:03:12;;;;;;;;;4.00;4.00;;;;;29.82;53.17;100876.56;5044733;28;45396;-81
2023/06/20 18:05:52;;;;;;;;;6.00;6.00;;;;;29.80;51.10;100908.66;5033069;28;45563;-82
2023/06/20 18:08:40;;;;;;;;;6.33;6.33;;;;;29.52;53.32;100898.69;5040730;28;45403;-82
2023/06/20 18:11:30;;;;;;;;;;;;;;;;;;;;;
2023/06/20 18:14:06;;;;;;;;;5.67;5.67;;;;;29.59;52.14;100946.78;5023380;28;73733;-82
2023/06/20 18:16:48;;;;;;;;;6.33;6.00;;;;;28.88;53.87;100871.25;5031294;28;46379;-81
2023/06/20 18:19:28;;;;;;;;;6.33;6.33;;;;;28.53;53.75;100883.72;5053446;28;45344;-82
2023/06/20 18:22:18;;;;;;;;;6.00;6.00;;;;;27.99;54.77;100853.09;5058014;28;45388;-78
2023/06/20 18:25:13;;;;;;;;;8.00;6.33;;;;;27.92;55.00;100903.78;5039207;28;46871;-83
2023/06/20 18:31:16;;;;;;;;;9.33;7.67;;;;;27.02;59.07;100861.91;5057707;28;45431;-83
2023/06/20 18:33:52;;;;;;;;;4.67;4.67;;;;;27.28;58.32;100938.50;5042570;28;45737;-83
2023/06/20 18:36:36;;;;;;;;;7.33;6.67;;;;;27.10;59.00;100929.72;5043973;28;45605;-83
2023/06/20 18:39:26;;;;;;;;;7.00;7.00;;;;;26.51;59.08;100865.09;5037929;28;45463;-83
2023/06/20 18:45:40;;;;;;;;;9.67;7.00;;;;;26.20;61.13;100851.44;5039703;28;45408;-84
2023/06/20 18:49:01;;;;;;;;;8.33;6.00;;;;;26.44;61.62;100907.53;5037036;28;45640;-83
2023/06/20 18:51:39;;;;;;;;;11.67;7.00;;;;;26.46;63.08;100935.31;5042939;28;45913;-82
2023/06/20 18:54:18;;;;;;;;;6.33;6.33;;;;;25.80;64.60;100839.59;5046611;28;45340;-83
2023/06/20 19:01:23;;;;;;;;;7.67;7.00;;;;;25.59;63.07;100865.50;4976441;28;45610;-85
2023/06/20 19:04:28;;;;;;;;;8.33;7.00;;;;;25.41;63.61;100846.63;4982691;28;47211;-85
2023/06/20 19:07:12;;;;;;;;;8.67;7.00;;;;;25.85;65.85;100955.63;5068539;27;45416;-85
2023/06/20 19:10:17;;;;;;;;;7.00;7.00;;;;;25.40;64.88;100889.09;5060795;27;45483;-85
2023/06/20 19:13:38;;;;;;;;;7.33;7.33;;;;;25.31;64.86;100881.13;4991289;27;45426;-83
2023/06/20 19:16:26;;;;;;;;;9.00;7.67;;;;;25.28;65.48;100890.44;4994368;28;46685;-81
2023/06/20 19:22:57;;;;;;;;;;;;;;;;;;;;;
2023/06/20 19:25:44;;;;;;;;;6.00;6.00;;;;;25.13;65.58;100910.19;5079882;27;71548;-81
2023/06/20 19:31:38;;;;;;;;;9.67;7.33;;;;;25.46;67.32;100993.22;5084075;27;45416;-83
2023/06/20 19:34:16;;;;;;;;;11.33;8.00;;;;;24.79;67.20;100900.19;5085147;27;45564;-82
2023/06/20 19:37:07;;;;;;;;;8.67;8.67;;;;;25.08;69.20;100947.72;5067971;28;45602;-81
2023/06/20 19:40:06;;;;;;;;;6.33;4.00;;;;;24.71;69.08;100902.84;5053979;28;45692;-88
2023/06/20 19:42:43;;;;;;;;;9.67;8.00;;;;;24.61;68.92;100893.13;5058652;28;45405;-84
2023/06/20 19:45:39;;;;;;;;;10.33;10.00;;;;;24.99;69.92;100990.13;5054407;27;45671;-86
2023/06/20 19:51:44;;;;;;;;;7.00;6.00;;;;;24.49;72.37;100927.72;5081552;27;46317;-85
2023/06/20 19:54:27;;;;;;;;;7.00;7.00;;;;;24.75;70.65;100974.56;5073249;28;45476;-83
2023/06/20 19:57:26;;;;;;;;;9.67;9.67;;;;;24.84;72.90;100999.84;5059909;28;45586;-83
2023/06/20 20:00:33;;;;;;;;;;;;;;;;;;;;;
2023/06/20 20:03:26;;;;;;;;;;;;;;;;;;;;;
2023/06/20 20:06:16;;;;;;;;;9.00;8.67;;;;;24.72;77.13;101042.50;5075656;28;72208;-84
2023/06/20 20:09:00;;;;;;;;;6.00;5.00;;;;;24.53;76.89;101042.69;5044973;28;45330;-83
2023/06/20 20:14:41;;;;;;;;;16.00;12.67;;;;;23.95;78.34;100984.69;5087667;27;45686;-86
2023/06/20 20:20:37;;;;;;;;;7.00;7.00;;;;;24.28;79.19;101049.72;5047492;27;45615;-83
2023/06/20 20:29:33;;;;;;;;;10.33;10.33;;;;;23.69;78.94;100976.50;5008623;28;45398;-82
2023/06/20 20:32:32;;;;;;;;;9.33;9.33;;;;;23.67;79.73;100982.03;5051825;28;45420;-82
2023/06/20 20:35:28;;;;;;;;;;;;;;;;;;;;;
2023/06/20 20:38:25;;;;;;;;;7.00;7.00;;;;;24.21;80.99;101088.38;5057850;28;75401;-86
2023/06/20 20:41:28;;;;;;;;;;;;;;;;;;;;;
2023/06/20 20:50:59;;;;;;;;;;;;;;;;;;;;;
2023/06/20 20:54:46;;;;;;;;;10.67;10.67;;;;;23.59;83.14;101016.22;5056371;28;73320;-81
2023/06/20 20:57:23;;;;;;;;;;;;;;;;;;;;;
2023/06/20 21:00:51;;;;;;;;;;;;;;;;;;;;;
2023/06/20 21:03:40;;;;;;;;;11.67;11.00;;;;;23.31;84.19;100996.41;5063860;28;75448;-81
2023/06/20 21:06:49;;;;;;;;;7.00;6.00;;;;;23.78;84.30;101086.31;5044956;28;45636;-80
2023/06/20 21:09:18;;;;;;;;;10.67;9.67;;;;;23.87;85.25;101125.94;5054844;28;45549;-80
2023/06/20 21:12:36;;;;;;;;;8.67;7.67;;;;;23.30;83.65;101019.00;5047514;28;45271;-78
2023/06/20 21:18:10;;;;;;;;;15.00;13.00;;;;;23.14;83.46;101005.28;5057321;28;45285;-78
2023/06/20 21:27:18;;;;;;;;;5.00;5.00;;;;;23.02;82.80;100976.78;5059232;28;45713;-84
2023/06/20 21:32:59;;;;;;;;;10.33;9.33;;;;;23.63;84.13;101109.41;5044790;28;45302;-84
2023/06/20 21:36:30;;;;;;;;;;;;;;;;;;;;;
2023/06/20 21:39:03;;;;;;;;;10.67;10.67;;;;;22.99;83.29;101012.16;5046685;28;74925;-85
2023/06/20 21:41:33;;;;;;;;;6.67;6.67;;;;;23.23;82.41;101056.53;5040839;28;45520;-84
2023/06/20 21:44:20;;;;;;;;;6.33;6.33;;;;;23.35;82.76;101074.25;5037537;28;45518;-78
2023/06/20 21:47:11;;;;;;;;;7.00;7.00;;;;;23.20;82.84;101066.78;5040635;28;46161;-83
2023/06/20 21:49:46;;;;;;;;;5.33;5.33;;;;;23.18;82.62;101052.56;5036181;28;45722;-84
2023/06/20 21:53:04;;;;;;;;;;;;;;;;;;;;;
2023/06/20 21:56:10;;;;;;;;;7.00;7.00;;;;;23.04;83.21;101047.63;5055145;28;68488;-84
2023/06/20 22:05:25;;;;;;;;;8.33;7.00;;;;;22.77;86.73;101061.91;5008950;28;45588;-83
2023/06/20 22:08:26;;;;;;;;;;;;;;;;;;;;;
2023/06/20 22:11:47;;;;;;;;;6.33;5.33;;;;;23.29;83.30;101142.34;5046242;28;74344;-84
2023/06/20 22:14:27;;;;;;;;;7.00;6.00;;;;;23.08;85.66;101122.75;5057627;28;46104;-83
2023/06/20 22:17:17;;;;;;;;;7.67;6.00;;;;;22.78;85.01;101088.72;5038568;28;45550;-83
2023/06/20 22:20:23;;;;;;;;;5.33;5.33;;;;;23.26;85.47;101175.00;5040241;28;45471;-83
2023/06/20 22:23:25;;;;;;;;;5.67;5.67;;;;;22.90;84.55;101111.03;5032614;28;46057;-82
2023/06/20 22:26:08;;;;;;;;;6.00;6.00;;;;;22.66;84.01;101073.69;5024542;28;45429;-82
2023/06/20 22:32:34;;;;;;;;;10.00;7.00;;;;;23.23;85.50;101163.66;5051770;28;45454;-84
2023/06/20 22:44:29;;;;;;;;;6.00;6.00;;;;;22.62;85.99;101101.91;5050279;28;45498;-84
2023/06/20 22:53:51;;;;;;;;;9.00;7.33;;;;;22.58;86.60;101118.50;5085746;27;45320;-84
2023/06/20 22:56:56;;;;;;;;;5.00;4.00;;;;;22.43;87.52;101091.13;5072349;27;45581;-84
2023/06/20 23:06:03;;;;;;;;;8.67;5.33;;;;;22.23;87.90;101092.94;5068657;27;45431;-83
2023/06/20 23:09:02;;;;;;;;;;;;;;;;;;;;;
2023/06/20 23:11:56;;;;;;;;;7.00;5.33;;;;;22.19;90.31;101085.28;5068598;27;71741;-83
2023/06/20 23:14:59;;;;;;;;;6.33;6.33;;;;;22.37;89.19;101112.41;5085902;27;46621;-82
2023/06/20 23:24:13;;;;;;;;;5.00;5.00;;;;;22.62;89.10;101179.25;5075855;27;45456;-82
2023/06/20 23:27:37;;;;;;;;;8.67;6.33;;;;;22.59;91.79;101177.69;5043333;28;46358;-83
2023/06/20 23:30:23;;;;;;;;;4.00;3.00;;;;;22.29;91.80;101135.50;5051985;28;45607;-83
2023/06/20 23:33:33;;;;;;;;;6.00;6.00;;;;;22.05;93.56;101101.88;5061486;28;45293;-83
2023/06/20 23:42:58;;;;;;;;;5.67;5.67;;;;;21.68;94.24;101093.50;5052236;27;45747;-83
2023/06/20 23:45:52;;;;;;;;;6.00;6.00;;;;;21.94;94.76;101145.06;5053418;28;45518;-82
2023/06/20 23:48:30;;;;;;;;;4.33;4.33;;;;;21.69;95.22;101108.66;5057937;28;45609;-82
2023/06/20 23:54:35;;;;;;;;;6.33;6.33;;;;;22.19;97.65;101220.84;5048666;28;45506;-83
